Terminal Aerodrome Forecast
Issued by NWS

Home | Current Version | Previous Version | Text Only | Print | Product List | Glossary On
Versions: 1 2 3 4 5 6 7 8 9 10 11 12
000
FTUS45 KREV 242328
TAFTVL
TAF
KTVL 242328Z 2500/2524 20014G25KT P6SM SCT070 SCT180
     FM250300 19008KT P6SM FEW070
     FM250800 VRB04KT P6SM SKC
     FM251800 20011G20KT P6SM FEW100=

USA.gov is the U.S. government's official web portal to all federal, state and local government web resources and services.